sensor_id;sensor_type;location;lat;lon;timestamp;pressure;altitude;pressure_sealevel;temperature;humidity
51849;BME280;38952;51.090;-1.832;2023-04-04T00:01:14;101554.69;;;2.35;68.63
51849;BME280;38952;51.090;-1.832;2023-04-04T00:03:41;101561.75;;;2.36;69.22
51849;BME280;38952;51.090;-1.832;2023-04-04T00:06:06;101559.25;;;2.34;69.07
51849;BME280;38952;51.090;-1.832;2023-04-04T00:08:32;101560.06;;;2.35;69.19
51849;BME280;38952;51.090;-1.832;2023-04-04T00:10:58;101562.13;;;2.33;69.33
51849;BME280;38952;51.090;-1.832;2023-04-04T00:13:24;101555.41;;;2.29;69.04
51849;BME280;38952;51.090;-1.832;2023-04-04T00:15:51;101552.06;;;2.26;69.18
51849;BME280;38952;51.090;-1.832;2023-04-04T00:18:16;101552.44;;;2.23;69.93
51849;BME280;38952;51.090;-1.832;2023-04-04T00:20:42;101556.16;;;2.22;69.80
51849;BME280;38952;51.090;-1.832;2023-04-04T00:23:07;101545.72;;;2.19;70.26
51849;BME280;38952;51.090;-1.832;2023-04-04T00:25:38;101552.13;;;2.18;70.18
51849;BME280;38952;51.090;-1.832;2023-04-04T00:28:03;101546.09;;;2.16;70.34
51849;BME280;38952;51.090;-1.832;2023-04-04T00:30:29;101552.88;;;2.12;70.45
51849;BME280;38952;51.090;-1.832;2023-04-04T02:30:36;101504.59;;;1.01;73.20
51849;BME280;38952;51.090;-1.832;2023-04-04T02:39:47;101506.97;;;0.96;73.49
51849;BME280;38952;51.090;-1.832;2023-04-04T02:42:15;101503.28;;;0.97;73.83
51849;BME280;38952;51.090;-1.832;2023-04-04T02:44:50;101507.84;;;0.97;74.02
51849;BME280;38952;51.090;-1.832;2023-04-04T02:47:15;101498.72;;;0.98;74.16
51849;BME280;38952;51.090;-1.832;2023-04-04T02:49:41;101497.25;;;0.95;74.13
51849;BME280;38952;51.090;-1.832;2023-04-04T02:52:07;101494.53;;;0.95;73.99
51849;BME280;38952;51.090;-1.832;2023-04-04T02:54:33;101495.72;;;0.93;75.00
51849;BME280;38952;51.090;-1.832;2023-04-04T02:56:58;101494.03;;;0.92;75.08
51849;BME280;38952;51.090;-1.832;2023-04-04T02:59:24;101491.16;;;0.93;74.64
51849;BME280;38952;51.090;-1.832;2023-04-04T03:01:50;101495.72;;;0.93;74.84
51849;BME280;38952;51.090;-1.832;2023-04-04T03:04:15;101490.69;;;0.90;75.57
51849;BME280;38952;51.090;-1.832;2023-04-04T03:06:42;101495.06;;;0.91;75.31
51849;BME280;38952;51.090;-1.832;2023-04-04T03:09:07;101494.41;;;0.89;74.88
51849;BME280;38952;51.090;-1.832;2023-04-04T03:11:33;101480.13;;;0.80;74.98
51849;BME280;38952;51.090;-1.832;2023-04-04T03:13:58;101490.44;;;0.76;75.48
51849;BME280;38952;51.090;-1.832;2023-04-04T03:16:24;101485.03;;;0.76;75.38
51849;BME280;38952;51.090;-1.832;2023-04-04T03:18:50;101486.06;;;0.75;76.31
51849;BME280;38952;51.090;-1.832;2023-04-04T03:21:15;101477.00;;;0.68;75.53
51849;BME280;38952;51.090;-1.832;2023-04-04T03:23:41;101484.06;;;0.69;75.76
51849;BME280;38952;51.090;-1.832;2023-04-04T03:26:07;101486.75;;;0.69;75.70
51849;BME280;38952;51.090;-1.832;2023-04-04T03:28:33;101480.69;;;0.67;76.48
51849;BME280;38952;51.090;-1.832;2023-04-04T03:31:05;101474.00;;;0.63;76.56
51849;BME280;38952;51.090;-1.832;2023-04-04T03:33:31;101472.31;;;0.62;76.87
51849;BME280;38952;51.090;-1.832;2023-04-04T03:35:58;101485.09;;;0.60;76.63
51849;BME280;38952;51.090;-1.832;2023-04-04T03:38:24;101482.22;;;0.61;76.94
51849;BME280;38952;51.090;-1.832;2023-04-04T03:40:50;101474.66;;;0.57;77.40
51849;BME280;38952;51.090;-1.832;2023-04-04T03:43:15;101469.47;;;0.55;76.78
51849;BME280;38952;51.090;-1.832;2023-04-04T03:45:41;101462.91;;;0.49;76.85
51849;BME280;38952;51.090;-1.832;2023-04-04T03:48:08;101482.94;;;0.55;76.59
51849;BME280;38952;51.090;-1.832;2023-04-04T03:50:34;101473.69;;;0.49;77.53
51849;BME280;38952;51.090;-1.832;2023-04-04T03:53:00;101483.28;;;0.52;76.69
51849;BME280;38952;51.090;-1.832;2023-04-04T03:55:26;101480.75;;;0.50;78.10
51849;BME280;38952;51.090;-1.832;2023-04-04T03:57:52;101475.72;;;0.47;77.86
51849;BME280;38952;51.090;-1.832;2023-04-04T04:00:17;101484.28;;;0.51;77.58
51849;BME280;38952;51.090;-1.832;2023-04-04T04:02:43;101476.06;;;0.44;77.64
51849;BME280;38952;51.090;-1.832;2023-04-04T04:05:11;101492.34;;;0.51;78.07
51849;BME280;38952;51.090;-1.832;2023-04-04T04:07:36;101493.56;;;0.48;78.26
51849;BME280;38952;51.090;-1.832;2023-04-04T04:10:02;101487.66;;;0.45;78.27
51849;BME280;38952;51.090;-1.832;2023-04-04T04:19:11;101486.50;;;0.47;77.54
51849;BME280;38952;51.090;-1.832;2023-04-04T04:21:36;101473.91;;;0.40;77.67
51849;BME280;38952;51.090;-1.832;2023-04-04T04:24:02;101475.09;;;0.37;78.04
51849;BME280;38952;51.090;-1.832;2023-04-04T04:26:28;101487.38;;;0.31;78.08
51849;BME280;38952;51.090;-1.832;2023-04-04T04:28:53;101481.84;;;0.25;78.37
51849;BME280;38952;51.090;-1.832;2023-04-04T04:31:18;101486.56;;;0.23;78.40
51849;BME280;38952;51.090;-1.832;2023-04-04T04:33:44;101481.69;;;0.18;78.08
51849;BME280;38952;51.090;-1.832;2023-04-04T04:36:10;101476.66;;;0.15;78.02
51849;BME280;38952;51.090;-1.832;2023-04-04T04:38:35;101473.47;;;0.11;78.54
51849;BME280;38952;51.090;-1.832;2023-04-04T04:41:01;101479.88;;;0.10;78.45
51849;BME280;38952;51.090;-1.832;2023-04-04T04:43:26;101469.44;;;0.07;77.87
51849;BME280;38952;51.090;-1.832;2023-04-04T04:45:51;101474.31;;;0.04;78.13
51849;BME280;38952;51.090;-1.832;2023-04-04T04:48:17;101472.97;;;-0.01;78.10
51849;BME280;38952;51.090;-1.832;2023-04-04T04:50:46;101468.78;;;-0.03;78.15
51849;BME280;38952;51.090;-1.832;2023-04-04T04:53:15;101464.78;;;-0.07;78.61
51849;BME280;38952;51.090;-1.832;2023-04-04T04:55:41;101460.41;;;-0.08;78.56
51849;BME280;38952;51.090;-1.832;2023-04-04T04:58:11;101461.09;;;-0.14;78.65
51849;BME280;38952;51.090;-1.832;2023-04-04T05:00:37;101465.78;;;-0.16;79.42
51849;BME280;38952;51.090;-1.832;2023-04-04T05:03:03;101462.06;;;-0.24;78.54
51849;BME280;38952;51.090;-1.832;2023-04-04T05:05:34;101471.19;;;-0.25;78.66
51849;BME280;38952;51.090;-1.832;2023-04-04T05:08:02;101460.91;;;-0.29;78.66
51849;BME280;38952;51.090;-1.832;2023-04-04T05:10:28;101470.66;;;-0.28;79.49
51849;BME280;38952;51.090;-1.832;2023-04-04T05:12:54;101463.09;;;-0.33;79.23
51849;BME280;38952;51.090;-1.832;2023-04-04T05:15:19;101462.28;;;-0.33;79.64
51849;BME280;38952;51.090;-1.832;2023-04-04T05:17:46;101456.72;;;-0.32;78.88
51849;BME280;38952;51.090;-1.832;2023-04-04T05:20:11;101468.47;;;-0.33;79.31
51849;BME280;38952;51.090;-1.832;2023-04-04T05:22:42;101471.34;;;-0.34;79.52
51849;BME280;38952;51.090;-1.832;2023-04-04T05:25:09;101474.38;;;-0.38;79.55
51849;BME280;38952;51.090;-1.832;2023-04-04T05:27:34;101467.81;;;-0.43;79.41
51849;BME280;38952;51.090;-1.832;2023-04-04T05:30:00;101472.34;;;-0.44;79.59
51849;BME280;38952;51.090;-1.832;2023-04-04T05:32:25;101465.09;;;-0.51;80.57
51849;BME280;38952;51.090;-1.832;2023-04-04T05:34:51;101461.75;;;-0.54;79.75
51849;BME280;38952;51.090;-1.832;2023-04-04T05:37:16;101463.09;;;-0.58;80.50
51849;BME280;38952;51.090;-1.832;2023-04-04T05:39:41;101467.13;;;-0.54;80.16
51849;BME280;38952;51.090;-1.832;2023-04-04T05:42:07;101471.34;;;-0.51;80.29
51849;BME280;38952;51.090;-1.832;2023-04-04T07:05:26;101529.47;;;2.04;78.39
51849;BME280;38952;51.090;-1.832;2023-04-04T07:07:55;101524.69;;;2.15;78.06
51849;BME280;38952;51.090;-1.832;2023-04-04T07:10:22;101517.81;;;2.27;77.75
51849;BME280;38952;51.090;-1.832;2023-04-04T07:13:14;101523.72;;;2.46;77.77
51849;BME280;38952;51.090;-1.832;2023-04-04T07:15:39;101530.50;;;2.56;77.24
51849;BME280;38952;51.090;-1.832;2023-04-04T07:18:16;101517.19;;;2.55;77.19
51849;BME280;38952;51.090;-1.832;2023-04-04T07:20:45;101524.91;;;2.73;77.04
51849;BME280;38952;51.090;-1.832;2023-04-04T07:23:10;101505.34;;;2.71;77.50
51849;BME280;38952;51.090;-1.832;2023-04-04T07:25:37;101496.50;;;2.77;76.65
51849;BME280;38952;51.090;-1.832;2023-04-04T07:28:09;101519.19;;;2.97;77.02
51849;BME280;38952;51.090;-1.832;2023-04-04T07:30:35;101497.75;;;2.96;77.14
51849;BME280;38952;51.090;-1.832;2023-04-04T07:33:01;101488.69;;;3.04;76.82
51849;BME280;38952;51.090;-1.832;2023-04-04T07:35:27;101510.38;;;3.25;76.69
51849;BME280;38952;51.090;-1.832;2023-04-04T07:37:53;101505.69;;;3.34;76.64
51849;BME280;38952;51.090;-1.832;2023-04-04T07:40:19;101485.09;;;3.33;76.36
51849;BME280;38952;51.090;-1.832;2023-04-04T07:42:47;101483.34;;;3.47;75.99
51849;BME280;38952;51.090;-1.832;2023-04-04T07:45:16;101480.25;;;3.50;76.40
51849;BME280;38952;51.090;-1.832;2023-04-04T08:07:13;101475.38;;;6.16;70.25
51849;BME280;38952;51.090;-1.832;2023-04-04T08:09:58;101478.72;;;6.04;70.01
51849;BME280;38952;51.090;-1.832;2023-04-04T08:12:47;101473.50;;;5.96;69.74
51849;BME280;38952;51.090;-1.832;2023-04-04T08:15:42;101425.91;;;6.66;69.98
51849;BME280;38952;51.090;-1.832;2023-04-04T08:18:41;101454.91;;;9.17;62.84
51849;BME280;38952;51.090;-1.832;2023-04-04T08:28:56;101474.97;;;19.19;38.37
51849;BME280;38952;51.090;-1.832;2023-04-04T08:31:48;101446.97;;;21.17;34.07
51849;BME280;38952;51.090;-1.832;2023-04-04T08:38:49;101477.75;;;23.93;28.92
51849;BME280;38952;51.090;-1.832;2023-04-04T08:42:05;101446.38;;;24.73;26.67
51849;BME280;38952;51.090;-1.832;2023-04-04T08:55:19;101450.41;;;28.11;21.23
51849;BME280;38952;51.090;-1.832;2023-04-04T09:01:09;101469.91;;;30.93;17.37
51849;BME280;38952;51.090;-1.832;2023-04-04T09:03:35;101463.41;;;31.50;17.95
51849;BME280;38952;51.090;-1.832;2023-04-04T09:06:04;101478.63;;;32.54;16.37
51849;BME280;38952;51.090;-1.832;2023-04-04T09:12:07;101475.34;;;34.65;14.99
51849;BME280;38952;51.090;-1.832;2023-04-04T09:14:39;101502.44;;;35.30;15.07
51849;BME280;38952;51.090;-1.832;2023-04-04T09:17:05;101497.78;;;36.36;13.73
51849;BME280;38952;51.090;-1.832;2023-04-04T09:19:55;101480.13;;;35.14;13.66
51849;BME280;38952;51.090;-1.832;2023-04-04T09:22:28;101491.38;;;36.25;13.53
51849;BME280;38952;51.090;-1.832;2023-04-04T09:24:53;101500.63;;;36.85;13.11
51849;BME280;38952;51.090;-1.832;2023-04-04T09:27:39;101476.88;;;37.37;13.10
51849;BME280;38952;51.090;-1.832;2023-04-04T09:30:05;101493.47;;;37.77;13.74
51849;BME280;38952;51.090;-1.832;2023-04-04T09:32:31;101489.34;;;38.56;12.09
51849;BME280;38952;51.090;-1.832;2023-04-04T09:35:08;101487.56;;;38.15;11.70
51849;BME280;38952;51.090;-1.832;2023-04-04T09:37:42;101477.72;;;36.54;12.07
51849;BME280;38952;51.090;-1.832;2023-04-04T09:40:21;101478.09;;;36.56;13.03
51849;BME280;38952;51.090;-1.832;2023-04-04T09:43:10;101482.47;;;38.30;12.46
51849;BME280;38952;51.090;-1.832;2023-04-04T09:45:43;101462.31;;;39.44;11.51
51849;BME280;38952;51.090;-1.832;2023-04-04T09:48:09;101474.81;;;40.07;10.81
51849;BME280;38952;51.090;-1.832;2023-04-04T09:57:51;101462.97;;;40.55;10.52
51849;BME280;38952;51.090;-1.832;2023-04-04T10:00:19;101474.94;;;41.25;9.72
51849;BME280;38952;51.090;-1.832;2023-04-04T10:03:06;101465.63;;;41.89;10.19
51849;BME280;38952;51.090;-1.832;2023-04-04T10:06:02;101492.41;;;42.94;10.18
51849;BME280;38952;51.090;-1.832;2023-04-04T10:09:06;101460.19;;;43.21;8.70
51849;BME280;38952;51.090;-1.832;2023-04-04T10:12:24;101483.19;;;41.78;9.37
51849;BME280;38952;51.090;-1.832;2023-04-04T10:14:59;101456.56;;;40.18;10.12
51849;BME280;38952;51.090;-1.832;2023-04-04T10:17:52;101484.28;;;40.21;9.63
51849;BME280;38952;51.090;-1.832;2023-04-04T10:20:31;101466.09;;;41.19;9.56
51849;BME280;38952;51.090;-1.832;2023-04-04T10:23:07;101484.09;;;42.74;8.99
51849;BME280;38952;51.090;-1.832;2023-04-04T10:26:00;101480.34;;;43.84;8.50
51849;BME280;38952;51.090;-1.832;2023-04-04T10:28:49;101491.75;;;45.03;8.33
51849;BME280;38952;51.090;-1.832;2023-04-04T10:31:22;101502.63;;;45.26;7.58
51849;BME280;38952;51.090;-1.832;2023-04-04T10:37:14;101475.56;;;47.62;8.03
51849;BME280;38952;51.090;-1.832;2023-04-04T10:39:52;101470.06;;;48.15;7.55
51849;BME280;38952;51.090;-1.832;2023-04-04T10:42:20;101471.66;;;46.76;6.97
51849;BME280;38952;51.090;-1.832;2023-04-04T10:45:05;101475.94;;;46.17;7.03
51849;BME280;38952;51.090;-1.832;2023-04-04T10:47:31;101465.16;;;45.60;6.43
51849;BME280;38952;51.090;-1.832;2023-04-04T10:50:01;101453.31;;;44.78;6.85
51849;BME280;38952;51.090;-1.832;2023-04-04T10:52:58;101453.47;;;45.54;6.85
51849;BME280;38952;51.090;-1.832;2023-04-04T10:55:37;101443.97;;;46.84;6.96
51849;BME280;38952;51.090;-1.832;2023-04-04T10:58:21;101453.78;;;47.01;6.00
51849;BME280;38952;51.090;-1.832;2023-04-04T11:01:17;101466.97;;;46.15;6.66
51849;BME280;38952;51.090;-1.832;2023-04-04T11:04:40;101455.28;;;46.97;6.20
51849;BME280;38952;51.090;-1.832;2023-04-04T11:07:34;101469.41;;;44.20;6.63
51849;BME280;38952;51.090;-1.832;2023-04-04T11:10:22;101471.13;;;43.36;7.28
51849;BME280;38952;51.090;-1.832;2023-04-04T11:13:10;101447.75;;;42.80;7.77
51849;BME280;38952;51.090;-1.832;2023-04-04T11:16:03;101445.19;;;43.99;6.72
51849;BME280;38952;51.090;-1.832;2023-04-04T11:18:44;101475.38;;;45.18;6.39
51849;BME280;38952;51.090;-1.832;2023-04-04T11:21:35;101453.00;;;46.38;6.14
51849;BME280;38952;51.090;-1.832;2023-04-04T11:24:43;101466.13;;;45.57;6.28
51849;BME280;38952;51.090;-1.832;2023-04-04T11:27:11;101474.63;;;45.60;5.49
51849;BME280;38952;51.090;-1.832;2023-04-04T11:30:13;101470.75;;;44.74;6.05
51849;BME280;38952;51.090;-1.832;2023-04-04T11:33:25;101433.88;;;43.41;5.99
51849;BME280;38952;51.090;-1.832;2023-04-04T11:39:48;101471.72;;;44.71;5.92
51849;BME280;38952;51.090;-1.832;2023-04-04T11:43:42;101448.47;;;44.84;5.79
51849;BME280;38952;51.090;-1.832;2023-04-04T11:54:00;101437.81;;;41.60;6.92
51849;BME280;38952;51.090;-1.832;2023-04-04T12:13:55;101415.44;;;45.89;5.75
51849;BME280;38952;51.090;-1.832;2023-04-04T12:19:41;101441.75;;;49.24;5.48
51849;BME280;38952;51.090;-1.832;2023-04-04T12:22:37;101417.00;;;48.29;4.15
51849;BME280;38952;51.090;-1.832;2023-04-04T12:28:04;101395.72;;;46.12;5.26
51849;BME280;38952;51.090;-1.832;2023-04-04T12:30:43;101395.19;;;47.07;5.44
51849;BME280;38952;51.090;-1.832;2023-04-04T12:33:36;101418.47;;;46.58;4.69
51849;BME280;38952;51.090;-1.832;2023-04-04T12:36:28;101408.00;;;45.21;5.51
51849;BME280;38952;51.090;-1.832;2023-04-04T12:39:08;101395.47;;;44.72;5.67
51849;BME280;38952;51.090;-1.832;2023-04-04T12:41:49;101387.41;;;42.89;5.91
51849;BME280;38952;51.090;-1.832;2023-04-04T12:44:26;101389.16;;;42.30;6.33
51849;BME280;38952;51.090;-1.832;2023-04-04T12:47:02;101404.31;;;41.82;6.39
51849;BME280;38952;51.090;-1.832;2023-04-04T12:49:42;101403.38;;;42.33;7.04
51849;BME280;38952;51.090;-1.832;2023-04-04T12:52:30;101379.09;;;44.14;5.97
51849;BME280;38952;51.090;-1.832;2023-04-04T12:58:44;101366.59;;;47.29;5.42
51849;BME280;38952;51.090;-1.832;2023-04-04T13:01:32;101393.34;;;48.36;4.73
51849;BME280;38952;51.090;-1.832;2023-04-04T13:04:07;101373.94;;;48.22;5.23
51849;BME280;38952;51.090;-1.832;2023-04-04T13:06:55;101383.16;;;48.93;5.45
51849;BME280;38952;51.090;-1.832;2023-04-04T13:09:31;101361.16;;;50.00;4.74
51849;BME280;38952;51.090;-1.832;2023-04-04T13:12:22;101381.63;;;50.39;4.39
51849;BME280;38952;51.090;-1.832;2023-04-04T13:15:17;101344.81;;;48.31;3.88
51849;BME280;38952;51.090;-1.832;2023-04-04T13:17:44;101357.84;;;46.79;4.73
51849;BME280;38952;51.090;-1.832;2023-04-04T13:20:19;101322.25;;;45.55;5.37
51849;BME280;38952;51.090;-1.832;2023-04-04T13:23:06;101326.69;;;46.44;5.86
51849;BME280;38952;51.090;-1.832;2023-04-04T13:25:32;101326.56;;;48.04;5.33
51849;BME280;38952;51.090;-1.832;2023-04-04T13:28:00;101334.81;;;49.60;4.50
51849;BME280;38952;51.090;-1.832;2023-04-04T13:30:50;101334.28;;;48.60;4.29
51849;BME280;38952;51.090;-1.832;2023-04-04T13:33:28;101325.97;;;47.38;4.95
51849;BME280;38952;51.090;-1.832;2023-04-04T13:36:03;101328.41;;;45.48;5.10
51849;BME280;38952;51.090;-1.832;2023-04-04T13:38:31;101309.16;;;44.41;6.07
51849;BME280;38952;51.090;-1.832;2023-04-04T13:41:06;101310.69;;;46.04;6.06
51849;BME280;38952;51.090;-1.832;2023-04-04T13:43:34;101295.50;;;46.48;5.87
51849;BME280;38952;51.090;-1.832;2023-04-04T13:46:02;101302.06;;;48.26;5.87
51849;BME280;38952;51.090;-1.832;2023-04-04T13:48:35;101296.09;;;49.31;5.07
51849;BME280;38952;51.090;-1.832;2023-04-04T13:51:01;101300.19;;;50.39;4.89
51849;BME280;38952;51.090;-1.832;2023-04-04T13:53:26;101302.59;;;51.14;4.45
51849;BME280;38952;51.090;-1.832;2023-04-04T13:55:59;101298.34;;;50.36;4.16
51849;BME280;38952;51.090;-1.832;2023-04-04T14:01:45;101271.19;;;47.35;5.39
51849;BME280;38952;51.090;-1.832;2023-04-04T14:04:33;101285.34;;;46.97;5.47
51849;BME280;38952;51.090;-1.832;2023-04-04T14:07:41;101274.94;;;45.77;5.53
51849;BME280;38952;51.090;-1.832;2023-04-04T14:14:12;101279.66;;;46.88;5.73
51849;BME280;38952;51.090;-1.832;2023-04-04T14:16:41;101271.66;;;46.23;5.78
51849;BME280;38952;51.090;-1.832;2023-04-04T14:19:23;101283.78;;;44.82;5.75
51849;BME280;38952;51.090;-1.832;2023-04-04T14:22:27;101228.31;;;42.39;6.58
51849;BME280;38952;51.090;-1.832;2023-04-04T14:31:26;101241.16;;;42.25;6.76
51849;BME280;38952;51.090;-1.832;2023-04-04T14:33:54;101239.34;;;43.63;7.00
51849;BME280;38952;51.090;-1.832;2023-04-04T14:36:24;101248.00;;;43.63;6.10
51849;BME280;38952;51.090;-1.832;2023-04-04T14:38:50;101240.25;;;43.32;6.62
51849;BME280;38952;51.090;-1.832;2023-04-04T14:41:16;101240.34;;;44.06;6.66
51849;BME280;38952;51.090;-1.832;2023-04-04T14:43:44;101240.00;;;44.22;6.30
51849;BME280;38952;51.090;-1.832;2023-04-04T14:46:30;101248.69;;;43.17;6.39
51849;BME280;38952;51.090;-1.832;2023-04-04T14:48:58;101233.19;;;41.72;6.75
51849;BME280;38952;51.090;-1.832;2023-04-04T14:51:24;101237.44;;;40.39;7.06
51849;BME280;38952;51.090;-1.832;2023-04-04T14:53:51;101234.13;;;39.82;7.48
51849;BME280;38952;51.090;-1.832;2023-04-04T14:56:17;101233.94;;;38.90;7.93
51849;BME280;38952;51.090;-1.832;2023-04-04T14:58:42;101225.72;;;38.92;8.03
51849;BME280;38952;51.090;-1.832;2023-04-04T15:01:20;101232.13;;;40.66;7.91
51849;BME280;38952;51.090;-1.832;2023-04-04T15:03:47;101229.22;;;41.57;6.62
51849;BME280;38952;51.090;-1.832;2023-04-04T15:06:13;101226.81;;;41.55;6.49
51849;BME280;38952;51.090;-1.832;2023-04-04T15:08:40;101212.25;;;40.46;6.96
51849;BME280;38952;51.090;-1.832;2023-04-04T15:11:06;101203.38;;;40.70;7.27
51849;BME280;38952;51.090;-1.832;2023-04-04T15:13:32;101226.78;;;41.07;7.36
51849;BME280;38952;51.090;-1.832;2023-04-04T15:15:58;101219.38;;;40.12;7.24
51849;BME280;38952;51.090;-1.832;2023-04-04T15:25:31;101220.06;;;40.46;7.44
51849;BME280;38952;51.090;-1.832;2023-04-04T15:27:56;101211.91;;;39.23;7.60
51849;BME280;38952;51.090;-1.832;2023-04-04T15:30:22;101214.81;;;38.10;7.75
51849;BME280;38952;51.090;-1.832;2023-04-04T15:32:48;101197.59;;;38.34;8.33
51849;BME280;38952;51.090;-1.832;2023-04-04T15:35:16;101206.84;;;38.94;8.07
51849;BME280;38952;51.090;-1.832;2023-04-04T15:37:42;101214.19;;;38.59;8.10
51849;BME280;38952;51.090;-1.832;2023-04-04T15:40:08;101204.28;;;38.27;8.20
51849;BME280;38952;51.090;-1.832;2023-04-04T15:42:34;101202.53;;;37.46;8.57
51849;BME280;38952;51.090;-1.832;2023-04-04T15:45:00;101190.81;;;37.13;8.67
51849;BME280;38952;51.090;-1.832;2023-04-04T15:47:26;101195.94;;;36.40;8.80
51849;BME280;38952;51.090;-1.832;2023-04-04T15:49:56;101183.50;;;36.26;9.48
51849;BME280;38952;51.090;-1.832;2023-04-04T15:52:22;101185.13;;;35.89;9.32
51849;BME280;38952;51.090;-1.832;2023-04-04T15:54:47;101190.13;;;35.78;9.70
51849;BME280;38952;51.090;-1.832;2023-04-04T15:57:13;101196.25;;;35.73;9.57
51849;BME280;38952;51.090;-1.832;2023-04-04T15:59:39;101189.00;;;35.64;10.05
51849;BME280;38952;51.090;-1.832;2023-04-04T16:02:05;101176.41;;;35.65;10.09
51849;BME280;38952;51.090;-1.832;2023-04-04T16:04:31;101169.22;;;35.95;10.42
51849;BME280;38952;51.090;-1.832;2023-04-04T16:10:28;101179.13;;;33.61;11.79
51849;BME280;38952;51.090;-1.832;2023-04-04T16:12:58;101161.31;;;33.82;11.80
51849;BME280;38952;51.090;-1.832;2023-04-04T16:15:30;101162.13;;;33.65;12.25
51849;BME280;38952;51.090;-1.832;2023-04-04T16:17:58;101164.34;;;34.38;12.20
51849;BME280;38952;51.090;-1.832;2023-04-04T16:20:29;101177.34;;;34.29;11.97
51849;BME280;38952;51.090;-1.832;2023-04-04T16:22:55;101160.50;;;33.06;13.04
51849;BME280;38952;51.090;-1.832;2023-04-04T16:25:20;101162.84;;;31.76;13.93
51849;BME280;38952;51.090;-1.832;2023-04-04T16:27:49;101168.25;;;30.27;15.56
51849;BME280;38952;51.090;-1.832;2023-04-04T16:30:17;101155.53;;;29.57;16.98
51849;BME280;38952;51.090;-1.832;2023-04-04T16:32:42;101174.78;;;28.82;17.35
51849;BME280;38952;51.090;-1.832;2023-04-04T16:35:10;101160.28;;;28.41;18.68
51849;BME280;38952;51.090;-1.832;2023-04-04T16:37:36;101164.47;;;27.76;19.88
51849;BME280;38952;51.090;-1.832;2023-04-04T16:40:02;101131.47;;;27.37;19.67
51849;BME280;38952;51.090;-1.832;2023-04-04T16:42:33;101165.41;;;27.32;20.57
51849;BME280;38952;51.090;-1.832;2023-04-04T16:45:01;101153.94;;;26.48;21.36
51849;BME280;38952;51.090;-1.832;2023-04-04T16:47:37;101134.88;;;25.73;21.91
51849;BME280;38952;51.090;-1.832;2023-04-04T16:50:05;101134.44;;;25.58;22.70
51849;BME280;38952;51.090;-1.832;2023-04-04T16:52:33;101146.94;;;24.78;23.06
51849;BME280;38952;51.090;-1.832;2023-04-04T17:02:06;101159.22;;;23.21;26.04
51849;BME280;38952;51.090;-1.832;2023-04-04T17:04:37;101156.81;;;23.40;25.92
51849;BME280;38952;51.090;-1.832;2023-04-04T17:07:05;101140.09;;;22.93;25.73
51849;BME280;38952;51.090;-1.832;2023-04-04T17:09:31;101159.66;;;22.23;26.29
51849;BME280;38952;51.090;-1.832;2023-04-04T17:12:15;101134.31;;;20.78;28.18
51849;BME280;38952;51.090;-1.832;2023-04-04T17:14:40;101133.06;;;20.38;29.03
51849;BME280;38952;51.090;-1.832;2023-04-04T17:17:21;101136.09;;;20.51;29.04
51849;BME280;38952;51.090;-1.832;2023-04-04T17:20:05;101150.00;;;21.05;28.78
51849;BME280;38952;51.090;-1.832;2023-04-04T17:29:21;101168.19;;;20.20;30.12
51849;BME280;38952;51.090;-1.832;2023-04-04T17:32:05;101157.19;;;19.51;31.33
51849;BME280;38952;51.090;-1.832;2023-04-04T17:34:33;101144.81;;;18.69;31.72
51849;BME280;38952;51.090;-1.832;2023-04-04T17:37:08;101164.56;;;17.91;32.83
51849;BME280;38952;51.090;-1.832;2023-04-04T17:39:59;101177.59;;;16.88;35.15
51849;BME280;38952;51.090;-1.832;2023-04-04T17:42:27;101159.47;;;15.98;36.27
51849;BME280;38952;51.090;-1.832;2023-04-04T17:44:53;101162.09;;;16.13;35.43
51849;BME280;38952;51.090;-1.832;2023-04-04T17:47:49;101156.94;;;16.41;35.38
51849;BME280;38952;51.090;-1.832;2023-04-04T17:50:17;101137.59;;;16.46;35.15
51849;BME280;38952;51.090;-1.832;2023-04-04T17:52:50;101139.97;;;16.23;35.85
51849;BME280;38952;51.090;-1.832;2023-04-04T17:55:41;101148.38;;;16.03;36.93
51849;BME280;38952;51.090;-1.832;2023-04-04T17:58:16;101158.50;;;15.63;37.61
51849;BME280;38952;51.090;-1.832;2023-04-04T18:01:00;101159.72;;;15.21;37.80
51849;BME280;38952;51.090;-1.832;2023-04-04T18:03:43;101139.66;;;14.48;39.17
51849;BME280;38952;51.090;-1.832;2023-04-04T18:06:09;101150.91;;;14.10;39.70
51849;BME280;38952;51.090;-1.832;2023-04-04T18:08:52;101175.56;;;13.74;40.73
51849;BME280;38952;51.090;-1.832;2023-04-04T18:11:30;101175.84;;;13.30;41.44
51849;BME280;38952;51.090;-1.832;2023-04-04T18:14:02;101185.50;;;12.95;42.63
51849;BME280;38952;51.090;-1.832;2023-04-04T18:16:30;101191.91;;;12.68;42.82
51849;BME280;38952;51.090;-1.832;2023-04-04T18:19:13;101169.41;;;12.12;43.23
51849;BME280;38952;51.090;-1.832;2023-04-04T18:21:41;101200.97;;;11.92;44.55
51849;BME280;38952;51.090;-1.832;2023-04-04T18:24:07;101191.16;;;11.52;44.51
51849;BME280;38952;51.090;-1.832;2023-04-04T18:26:35;101202.28;;;11.23;45.67
51849;BME280;38952;51.090;-1.832;2023-04-04T18:29:00;101201.88;;;10.97;47.33
51849;BME280;38952;51.090;-1.832;2023-04-04T18:31:26;101216.47;;;10.69;48.33
51849;BME280;38952;51.090;-1.832;2023-04-04T18:33:51;101207.00;;;10.43;48.05
51849;BME280;38952;51.090;-1.832;2023-04-04T18:36:17;101198.88;;;10.19;48.03
51849;BME280;38952;51.090;-1.832;2023-04-04T18:38:44;101192.91;;;9.93;49.92
51849;BME280;38952;51.090;-1.832;2023-04-04T18:41:09;101189.16;;;9.71;50.84
51849;BME280;38952;51.090;-1.832;2023-04-04T18:43:35;101191.84;;;9.42;51.75
51849;BME280;38952;51.090;-1.832;2023-04-04T18:46:01;101187.09;;;9.25;51.69
51849;BME280;38952;51.090;-1.832;2023-04-04T18:48:30;101195.91;;;9.04;52.57
51849;BME280;38952;51.090;-1.832;2023-04-04T18:50:56;101197.44;;;8.88;53.54
51849;BME280;38952;51.090;-1.832;2023-04-04T18:53:22;101203.00;;;8.81;53.41
51849;BME280;38952;51.090;-1.832;2023-04-04T18:55:49;101202.75;;;8.71;54.09
51849;BME280;38952;51.090;-1.832;2023-04-04T18:58:17;101200.34;;;8.63;53.90
51849;BME280;38952;51.090;-1.832;2023-04-04T19:00:51;101197.47;;;8.46;54.45
51849;BME280;38952;51.090;-1.832;2023-04-04T19:03:21;101183.25;;;8.13;56.71
51849;BME280;38952;51.090;-1.832;2023-04-04T19:05:52;101202.88;;;8.03;56.84